createdAt,value
2023-04-26T00:00:29.312Z,21.90
2023-04-26T00:02:31.012Z,21.90
2023-04-26T00:04:34.180Z,21.90
2023-04-26T00:06:37.366Z,21.90
2023-04-26T00:08:39.077Z,21.90
2023-04-26T00:10:40.735Z,21.90
2023-04-26T00:12:42.618Z,21.90
2023-04-26T00:14:44.307Z,21.90
2023-04-26T00:16:46.247Z,21.90
2023-04-26T00:18:49.246Z,21.90
2023-04-26T00:20:51.275Z,21.90
2023-04-26T00:22:53.108Z,21.90
2023-04-26T00:24:54.664Z,21.90
2023-04-26T00:26:56.280Z,21.80
2023-04-26T00:28:57.906Z,21.80
2023-04-26T00:30:59.522Z,21.80
2023-04-26T00:33:01.259Z,21.80
2023-04-26T00:35:03.578Z,21.90
2023-04-26T00:37:05.295Z,21.90
2023-04-26T00:39:06.811Z,21.80
2023-04-26T00:41:08.344Z,21.80
2023-04-26T00:43:10.930Z,21.80
2023-04-26T00:45:12.487Z,21.80
2023-04-26T00:47:14.059Z,21.80
2023-04-26T00:49:19.628Z,21.80
2023-04-26T00:51:21.528Z,21.80
2023-04-26T00:53:23.445Z,21.80
2023-04-26T00:55:26.991Z,21.80
2023-04-26T00:57:28.564Z,21.80
2023-04-26T00:59:30.554Z,21.80
2023-04-26T01:01:32.585Z,21.80
2023-04-26T01:03:34.620Z,21.80
2023-04-26T01:05:36.759Z,21.80
2023-04-26T01:07:40.972Z,21.80
2023-04-26T01:09:43.738Z,21.80
2023-04-26T01:11:45.398Z,21.80
2023-04-26T01:13:46.948Z,21.70
2023-04-26T01:15:48.743Z,21.80
2023-04-26T01:17:50.826Z,21.70
2023-04-26T01:19:52.736Z,21.70
2023-04-26T01:21:54.320Z,21.80
2023-04-26T01:23:55.905Z,21.70
2023-04-26T01:25:57.566Z,21.70
2023-04-26T01:27:59.120Z,21.70
2023-04-26T01:30:01.053Z,21.70
2023-04-26T01:32:02.628Z,21.70
2023-04-26T01:34:04.146Z,21.70
2023-04-26T01:36:10.522Z,21.70
2023-04-26T01:38:14.432Z,21.70
2023-04-26T01:40:16.128Z,21.70
2023-04-26T01:42:17.664Z,21.70
2023-04-26T01:44:19.391Z,21.70
2023-04-26T01:46:21.530Z,21.70
2023-04-26T01:48:23.162Z,21.70
2023-04-26T01:50:24.812Z,21.70
2023-04-26T01:52:26.339Z,21.70
2023-04-26T01:54:27.967Z,21.70
2023-04-26T01:56:29.510Z,21.70
2023-04-26T01:58:31.503Z,21.70
2023-04-26T02:00:33.593Z,21.60
2023-04-26T02:02:35.197Z,21.60
2023-04-26T02:04:36.949Z,21.60
2023-04-26T02:06:38.578Z,21.60
2023-04-26T02:08:40.128Z,21.60
2023-04-26T02:10:41.695Z,21.60
2023-04-26T02:12:43.263Z,21.70
2023-04-26T02:14:44.923Z,21.70
2023-04-26T02:16:46.617Z,21.70
2023-04-26T02:18:49.979Z,21.60
2023-04-26T02:20:51.781Z,21.60
2023-04-26T02:22:53.345Z,21.60
2023-04-26T02:24:54.931Z,21.60
2023-04-26T02:27:00.424Z,21.60
2023-04-26T02:29:02.018Z,21.60
2023-04-26T02:31:03.709Z,21.60
2023-04-26T02:33:05.332Z,21.50
2023-04-26T02:35:07.173Z,21.50
2023-04-26T02:37:08.980Z,21.60
2023-04-26T02:39:11.999Z,21.50
2023-04-26T02:41:13.579Z,21.60
2023-04-26T02:43:15.174Z,21.50
2023-04-26T02:45:16.701Z,21.50
2023-04-26T02:47:18.254Z,21.50
2023-04-26T02:49:19.848Z,21.50
2023-04-26T02:51:21.417Z,21.50
2023-04-26T02:53:22.982Z,21.50
2023-04-26T02:55:24.521Z,21.50
2023-04-26T02:57:26.342Z,21.50
2023-04-26T02:59:27.913Z,21.50
2023-04-26T03:01:29.501Z,21.50
2023-04-26T03:03:32.398Z,21.50
2023-04-26T03:05:34.069Z,21.50
2023-04-26T03:07:35.732Z,21.50
2023-04-26T03:09:38.824Z,21.50
2023-04-26T03:11:40.357Z,21.50
2023-04-26T03:13:42.018Z,21.50
2023-04-26T03:15:46.983Z,21.50
2023-04-26T03:17:48.588Z,21.50
2023-04-26T03:19:50.296Z,21.50
2023-04-26T03:21:51.821Z,21.50
2023-04-26T03:23:53.352Z,21.50
2023-04-26T03:25:54.963Z,21.50
2023-04-26T03:27:56.684Z,21.50
2023-04-26T03:29:58.337Z,21.50
2023-04-26T03:32:00.012Z,21.40
2023-04-26T03:34:01.595Z,21.40
2023-04-26T03:36:03.380Z,21.40
2023-04-26T03:38:04.949Z,21.40
2023-04-26T03:40:09.745Z,21.50
2023-04-26T03:42:11.374Z,21.50
2023-04-26T03:44:13.016Z,21.60
2023-04-26T03:46:14.646Z,21.70
2023-04-26T03:48:17.143Z,21.70
2023-04-26T03:50:18.886Z,21.80
2023-04-26T03:52:20.493Z,21.90
2023-04-26T03:54:22.404Z,21.90
2023-04-26T03:56:23.920Z,22.00
2023-04-26T03:58:26.014Z,22.00
2023-04-26T04:00:27.820Z,22.00
2023-04-26T04:02:29.611Z,22.00
2023-04-26T04:04:31.641Z,22.00
2023-04-26T04:06:33.469Z,22.00
2023-04-26T04:08:35.092Z,22.00
2023-04-26T04:10:37.933Z,22.00
2023-04-26T04:12:39.588Z,22.00
2023-04-26T04:14:41.274Z,22.00
2023-04-26T04:16:42.999Z,22.00
2023-04-26T04:18:44.578Z,22.00
2023-04-26T04:20:46.294Z,21.90
2023-04-26T04:22:48.055Z,22.00
2023-04-26T04:24:49.612Z,22.00
2023-04-26T04:26:51.460Z,21.90
2023-04-26T04:28:53.527Z,21.90
2023-04-26T04:30:57.011Z,21.80
2023-04-26T04:33:01.442Z,21.80
2023-04-26T04:35:03.281Z,21.80
2023-04-26T04:37:04.969Z,21.80
2023-04-26T04:39:12.349Z,21.90
2023-04-26T04:41:14.509Z,21.90
2023-04-26T04:43:16.729Z,21.90
2023-04-26T04:45:18.643Z,21.90
2023-04-26T04:47:20.214Z,21.90
2023-04-26T04:49:22.003Z,21.90
2023-04-26T04:51:23.525Z,21.80
2023-04-26T04:53:25.062Z,21.90
2023-04-26T04:55:26.597Z,21.90
2023-04-26T04:57:28.370Z,21.90
2023-04-26T04:59:30.056Z,21.90
2023-04-26T05:01:34.672Z,21.90
2023-04-26T05:03:36.698Z,21.90
2023-04-26T05:05:38.392Z,21.90
2023-04-26T05:07:39.972Z,21.90
2023-04-26T05:09:44.559Z,21.90
2023-04-26T05:11:46.138Z,21.90
2023-04-26T05:13:50.273Z,21.90
2023-04-26T05:15:53.818Z,21.80
2023-04-26T05:17:55.870Z,21.80
2023-04-26T05:19:57.622Z,21.80
2023-04-26T05:21:59.257Z,21.90
2023-04-26T05:24:01.874Z,21.90
2023-04-26T05:26:06.952Z,21.90
2023-04-26T05:28:12.536Z,21.90
2023-04-26T05:30:14.229Z,21.80
2023-04-26T05:32:15.839Z,21.90
2023-04-26T05:34:17.426Z,21.80
2023-04-26T05:36:19.421Z,21.90
2023-04-26T05:38:21.907Z,21.90
2023-04-26T05:40:23.573Z,21.90
2023-04-26T05:42:25.535Z,21.90
2023-04-26T05:44:27.075Z,21.90
2023-04-26T05:46:28.664Z,21.80
2023-04-26T05:48:30.270Z,21.80
2023-04-26T05:50:31.852Z,21.90
2023-04-26T05:52:33.432Z,21.90
2023-04-26T05:54:34.952Z,21.90
2023-04-26T05:56:36.482Z,21.80
2023-04-26T05:58:38.038Z,21.90
2023-04-26T06:00:39.640Z,21.90
2023-04-26T06:02:41.549Z,21.80
2023-04-26T06:04:43.355Z,21.80
2023-04-26T06:06:45.084Z,21.80
2023-04-26T06:08:46.608Z,21.80
2023-04-26T06:10:48.372Z,21.80
2023-04-26T06:12:50.018Z,21.80
2023-04-26T06:14:51.583Z,21.80
2023-04-26T06:16:53.144Z,21.80
2023-04-26T06:18:54.697Z,21.80
2023-04-26T06:20:56.315Z,21.90
2023-04-26T06:22:57.903Z,21.90
2023-04-26T06:24:59.516Z,21.90
2023-04-26T06:27:01.100Z,21.80
2023-04-26T06:29:03.263Z,21.80
2023-04-26T06:31:04.854Z,21.80
2023-04-26T06:33:06.506Z,21.80
2023-04-26T06:35:08.335Z,21.80
2023-04-26T06:37:09.864Z,21.80
2023-04-26T06:39:11.700Z,21.80
2023-04-26T06:41:13.223Z,21.80
2023-04-26T06:43:14.786Z,21.80
2023-04-26T06:45:17.037Z,21.80
2023-04-26T06:47:18.589Z,21.80
2023-04-26T06:49:20.169Z,21.80
2023-04-26T06:51:21.749Z,21.80
2023-04-26T06:53:23.498Z,21.80
2023-04-26T06:55:25.268Z,21.80
2023-04-26T06:57:26.828Z,21.90
2023-04-26T06:59:28.372Z,21.90
2023-04-26T07:01:33.687Z,21.90
2023-04-26T07:03:35.701Z,21.80
2023-04-26T07:05:38.995Z,21.80
2023-04-26T07:07:40.602Z,21.80
2023-04-26T07:09:42.192Z,21.80
2023-04-26T07:11:45.896Z,21.80
2023-04-26T07:13:47.540Z,21.80
2023-04-26T07:15:49.125Z,21.80
2023-04-26T07:17:51.071Z,21.80
2023-04-26T07:19:53.589Z,21.80
2023-04-26T07:21:56.537Z,21.80
2023-04-26T07:23:58.368Z,21.80
2023-04-26T07:26:01.477Z,21.90
2023-04-26T07:28:03.061Z,21.80
2023-04-26T07:30:05.530Z,21.80
2023-04-26T07:32:07.184Z,21.80
2023-04-26T07:34:08.842Z,21.90
2023-04-26T07:36:10.494Z,21.80
2023-04-26T07:38:14.484Z,21.80
2023-04-26T07:40:16.311Z,21.80
2023-04-26T07:42:17.974Z,21.80
2023-04-26T07:44:19.565Z,21.80
2023-04-26T07:46:21.602Z,21.80
2023-04-26T07:48:23.236Z,21.80
2023-04-26T07:50:24.846Z,21.80
2023-04-26T07:52:26.439Z,21.80
2023-04-26T07:54:28.124Z,21.80
2023-04-26T07:56:29.719Z,21.80
2023-04-26T07:58:32.944Z,21.80
2023-04-26T08:00:38.431Z,21.80
2023-04-26T08:02:45.051Z,21.80
2023-04-26T08:04:49.025Z,21.80
2023-04-26T08:06:50.689Z,21.90
2023-04-26T08:08:53.677Z,21.90
2023-04-26T08:10:55.774Z,21.80
2023-04-26T08:12:57.444Z,21.80
2023-04-26T08:15:00.166Z,21.80
2023-04-26T08:17:01.872Z,21.90
2023-04-26T08:19:03.573Z,21.90
2023-04-26T08:21:05.117Z,21.80
2023-04-26T08:23:06.804Z,21.90
2023-04-26T08:25:08.473Z,21.90
2023-04-26T08:27:10.066Z,21.90
2023-04-26T08:29:11.663Z,21.90
2023-04-26T08:31:13.862Z,21.90
2023-04-26T08:33:17.864Z,21.90
2023-04-26T08:35:19.415Z,21.90
2023-04-26T08:37:21.057Z,21.90
2023-04-26T08:39:22.685Z,21.90
2023-04-26T08:41:24.835Z,21.90
2023-04-26T08:43:27.835Z,21.90
2023-04-26T08:45:29.381Z,21.90
2023-04-26T08:47:44.021Z,22.00
2023-04-26T08:49:48.668Z,21.90
2023-04-26T08:51:50.553Z,21.90
2023-04-26T08:53:53.605Z,21.90
2023-04-26T08:55:55.679Z,21.90
2023-04-26T08:57:57.639Z,21.90
2023-04-26T08:59:59.403Z,21.90
2023-04-26T09:02:03.279Z,21.90
2023-04-26T09:04:05.572Z,21.90
2023-04-26T09:06:07.542Z,21.90
2023-04-26T09:08:09.690Z,21.90
2023-04-26T09:10:12.875Z,21.90
2023-04-26T09:12:14.466Z,21.90
2023-04-26T09:14:16.136Z,21.90
2023-04-26T09:16:17.767Z,21.90
2023-04-26T09:18:20.385Z,21.90
2023-04-26T09:20:28.701Z,21.90
2023-04-26T09:22:30.286Z,21.90
2023-04-26T09:24:48.316Z,21.90
2023-04-26T09:27:01.146Z,21.90
2023-04-26T09:29:15.400Z,21.90
2023-04-26T09:31:36.235Z,21.90
2023-04-26T09:33:57.221Z,21.90
2023-04-26T09:36:10.715Z,21.90
2023-04-26T09:38:14.028Z,21.90
2023-04-26T09:40:19.782Z,21.90
2023-04-26T09:42:21.525Z,21.90
2023-04-26T09:44:23.566Z,21.90
2023-04-26T09:46:25.249Z,21.90
2023-04-26T09:48:30.308Z,21.90
2023-04-26T09:50:32.039Z,21.90
2023-04-26T09:52:42.254Z,21.90
2023-04-26T09:54:45.089Z,21.90
2023-04-26T09:56:59.092Z,21.90
2023-04-26T09:59:02.266Z,21.90
2023-04-26T10:01:05.086Z,21.90
2023-04-26T10:03:08.775Z,21.90
2023-04-26T10:05:10.720Z,21.90
2023-04-26T10:07:13.083Z,22.00
2023-04-26T10:09:15.418Z,21.90
2023-04-26T10:11:18.050Z,21.90
2023-04-26T10:13:19.685Z,22.00
2023-04-26T10:15:21.271Z,22.00
2023-04-26T10:17:22.943Z,22.00
2023-04-26T10:19:24.738Z,22.00
2023-04-26T10:21:28.674Z,22.10
2023-04-26T10:23:30.379Z,22.10
2023-04-26T10:25:36.487Z,22.10
2023-04-26T10:27:44.482Z,22.10
2023-04-26T10:29:54.868Z,22.10
2023-04-26T10:32:02.627Z,22.20
2023-04-26T10:34:20.377Z,22.10
2023-04-26T10:36:22.197Z,22.20
2023-04-26T10:38:23.739Z,22.10
2023-04-26T10:40:29.421Z,22.10
2023-04-26T10:42:32.289Z,22.10
2023-04-26T10:44:39.401Z,22.10
2023-04-26T10:46:41.127Z,22.10
2023-04-26T10:48:42.781Z,22.10
2023-04-26T10:51:05.423Z,22.10
2023-04-26T10:53:07.070Z,22.20
2023-04-26T10:55:10.240Z,22.20
2023-04-26T10:57:11.898Z,22.20
2023-04-26T10:59:31.043Z,22.10
2023-04-26T11:01:35.768Z,22.10
2023-04-26T11:03:38.599Z,22.10
2023-04-26T11:05:56.164Z,22.20
2023-04-26T11:08:07.655Z,22.20
2023-04-26T11:10:12.361Z,22.20
2023-04-26T11:12:14.653Z,22.20
2023-04-26T11:14:16.536Z,22.20
2023-04-26T11:16:18.278Z,22.20
2023-04-26T11:18:21.123Z,22.20
2023-04-26T11:20:23.083Z,22.20
2023-04-26T11:22:24.718Z,22.20
2023-04-26T11:24:27.154Z,22.20
2023-04-26T11:26:32.951Z,22.20
2023-04-26T11:28:35.332Z,22.20
2023-04-26T11:30:36.891Z,22.20
2023-04-26T11:32:38.549Z,22.20
2023-04-26T11:34:40.604Z,22.20
2023-04-26T11:36:44.504Z,22.20
2023-04-26T11:38:46.089Z,22.30
2023-04-26T11:40:53.170Z,22.30
2023-04-26T11:42:54.753Z,22.30
2023-04-26T11:44:56.946Z,22.30
2023-04-26T11:46:59.281Z,22.30
2023-04-26T11:49:00.910Z,22.30
2023-04-26T11:51:03.748Z,22.30
2023-04-26T11:53:07.033Z,22.30
2023-04-26T11:55:10.251Z,22.30
2023-04-26T11:57:17.188Z,22.30
2023-04-26T11:59:31.746Z,22.40
2023-04-26T12:01:33.421Z,22.40
2023-04-26T12:03:37.884Z,22.40
2023-04-26T12:05:39.850Z,22.40
2023-04-26T12:07:41.668Z,22.40
2023-04-26T12:09:43.749Z,22.40
2023-04-26T12:12:07.645Z,22.40
2023-04-26T12:14:09.982Z,22.50
2023-04-26T12:16:25.572Z,22.40
2023-04-26T12:18:32.295Z,22.50
2023-04-26T12:20:35.792Z,22.50
2023-04-26T12:22:37.633Z,22.50
2023-04-26T12:24:39.531Z,22.50
2023-04-26T12:26:47.091Z,22.50
2023-04-26T12:28:49.012Z,22.50
2023-04-26T12:30:51.076Z,22.50
2023-04-26T12:32:52.698Z,22.50
2023-04-26T12:34:54.339Z,22.50
2023-04-26T12:36:56.235Z,22.50
2023-04-26T12:38:58.069Z,22.60
2023-04-26T12:40:59.778Z,22.60
2023-04-26T12:43:01.359Z,22.60
2023-04-26T12:45:02.997Z,22.60
2023-04-26T12:47:04.692Z,22.60
2023-04-26T12:49:06.274Z,22.60
2023-04-26T12:51:07.874Z,22.60
2023-04-26T12:53:11.056Z,22.60
2023-04-26T12:55:13.722Z,22.70
2023-04-26T12:57:15.563Z,22.60
2023-04-26T12:59:17.256Z,22.60
2023-04-26T13:01:18.862Z,22.60
2023-04-26T13:03:20.681Z,22.60
2023-04-26T13:05:24.634Z,22.60
2023-04-26T13:07:26.366Z,22.60
2023-04-26T13:09:28.016Z,22.60
2023-04-26T13:11:29.620Z,22.70
2023-04-26T13:13:42.165Z,22.70
2023-04-26T13:15:45.035Z,22.60
2023-04-26T13:17:47.019Z,22.70
2023-04-26T13:19:48.636Z,22.70
2023-04-26T13:21:52.356Z,22.70
2023-04-26T13:23:53.959Z,22.70
2023-04-26T13:25:55.900Z,22.70
2023-04-26T13:27:57.508Z,22.70
2023-04-26T13:29:59.072Z,22.70
2023-04-26T13:32:01.204Z,22.70
2023-04-26T13:34:03.190Z,22.70
2023-04-26T13:36:04.813Z,22.70
2023-04-26T13:38:06.425Z,22.70
2023-04-26T13:40:08.494Z,22.70
2023-04-26T13:42:10.041Z,22.70
2023-04-26T13:44:11.711Z,22.70
2023-04-26T13:46:13.506Z,22.70
2023-04-26T13:48:15.451Z,22.70
2023-04-26T13:50:18.004Z,22.70
2023-04-26T13:52:19.584Z,22.70
2023-04-26T13:54:25.953Z,22.70
2023-04-26T13:56:27.763Z,22.70
2023-04-26T13:58:29.412Z,22.70
2023-04-26T14:00:31.153Z,22.70
2023-04-26T14:02:32.820Z,22.70
2023-04-26T14:04:34.668Z,22.70
2023-04-26T14:06:36.427Z,22.70
2023-04-26T14:08:38.006Z,22.70
2023-04-26T14:10:39.571Z,22.70
2023-04-26T14:12:41.406Z,22.70
2023-04-26T14:14:42.992Z,22.70
2023-04-26T14:16:44.644Z,22.70
2023-04-26T14:18:46.426Z,22.70
2023-04-26T14:20:48.292Z,22.70
2023-04-26T14:22:50.225Z,22.70
2023-04-26T14:24:51.850Z,22.70
2023-04-26T14:26:53.377Z,22.70
2023-04-26T14:28:54.979Z,22.70
2023-04-26T14:30:56.516Z,22.70
2023-04-26T14:32:58.125Z,22.70
2023-04-26T14:34:59.790Z,22.70
2023-04-26T14:37:01.722Z,22.70
2023-04-26T14:39:03.401Z,22.70
2023-04-26T14:41:04.942Z,22.70
2023-04-26T14:43:06.473Z,22.70
2023-04-26T14:45:08.602Z,22.80
2023-04-26T14:47:10.177Z,22.80
2023-04-26T14:49:11.882Z,22.80
2023-04-26T14:51:13.503Z,22.80
2023-04-26T14:53:15.060Z,22.80
2023-04-26T14:55:17.615Z,22.80
2023-04-26T14:57:19.154Z,22.80
2023-04-26T14:59:21.063Z,22.80
2023-04-26T15:01:22.659Z,22.80
2023-04-26T15:03:24.535Z,22.80
2023-04-26T15:05:26.332Z,22.80
2023-04-26T15:07:32.504Z,22.80
2023-04-26T15:09:34.762Z,22.80
2023-04-26T15:11:36.481Z,22.80
2023-04-26T15:13:38.131Z,22.80
2023-04-26T15:15:39.773Z,22.80
2023-04-26T15:17:41.329Z,22.80
2023-04-26T15:19:42.967Z,22.80
2023-04-26T15:21:44.541Z,22.80
2023-04-26T15:23:46.385Z,22.70
2023-04-26T15:25:48.079Z,22.80
2023-04-26T15:27:50.520Z,22.80
2023-04-26T15:29:52.131Z,22.70
2023-04-26T15:31:53.773Z,22.70
2023-04-26T15:33:56.494Z,22.70
2023-04-26T15:35:58.075Z,22.70
2023-04-26T15:37:59.680Z,22.70
2023-04-26T15:40:01.549Z,22.70
2023-04-26T15:42:04.350Z,22.70
2023-04-26T15:44:05.898Z,22.70
2023-04-26T15:46:07.556Z,22.70
2023-04-26T15:48:10.746Z,22.70
2023-04-26T15:50:12.478Z,22.70
2023-04-26T15:52:14.080Z,22.70
2023-04-26T15:54:15.754Z,22.70
2023-04-26T15:56:17.797Z,22.70
2023-04-26T15:58:19.474Z,22.70
2023-04-26T16:00:21.416Z,22.70
2023-04-26T16:02:23.093Z,22.70
2023-04-26T16:04:24.970Z,22.70
2023-04-26T16:06:28.459Z,22.70
2023-04-26T16:08:39.811Z,22.70
2023-04-26T16:10:42.331Z,22.70
2023-04-26T16:12:44.730Z,22.70
2023-04-26T16:14:46.451Z,22.60
2023-04-26T16:16:48.108Z,22.60
2023-04-26T16:18:49.644Z,22.70
2023-04-26T16:20:51.405Z,22.70
2023-04-26T16:22:53.052Z,22.70
2023-04-26T16:24:54.617Z,22.70
2023-04-26T16:26:56.172Z,22.70
2023-04-26T16:28:57.800Z,22.70
2023-04-26T16:30:59.375Z,22.70
2023-04-26T16:33:01.588Z,22.70
2023-04-26T16:35:03.292Z,22.70
2023-04-26T16:37:04.978Z,22.80
2023-04-26T16:39:07.560Z,22.80
2023-04-26T16:41:09.142Z,22.80
2023-04-26T16:43:14.284Z,22.80
2023-04-26T16:45:16.766Z,22.80
2023-04-26T16:47:18.472Z,22.70
2023-04-26T16:49:20.038Z,22.80
2023-04-26T16:51:21.650Z,22.80
2023-04-26T16:53:23.278Z,22.80
2023-04-26T16:55:24.851Z,22.80
2023-04-26T16:57:26.450Z,22.80
2023-04-26T16:59:28.195Z,22.80
2023-04-26T17:01:29.765Z,22.90
2023-04-26T17:03:31.829Z,22.90
2023-04-26T17:05:37.287Z,22.90
2023-04-26T17:07:38.868Z,22.90
2023-04-26T17:09:40.392Z,22.90
2023-04-26T17:11:43.514Z,22.90
2023-04-26T17:13:45.297Z,22.90
2023-04-26T17:15:47.143Z,22.90
2023-04-26T17:17:48.879Z,22.90
2023-04-26T17:19:50.681Z,22.80
2023-04-26T17:21:52.332Z,22.90
2023-04-26T17:23:54.267Z,22.90
2023-04-26T17:25:55.963Z,22.90
2023-04-26T17:27:57.603Z,22.80
2023-04-26T17:29:59.180Z,22.90
2023-04-26T17:32:01.098Z,22.80
2023-04-26T17:34:04.851Z,22.80
2023-04-26T17:36:06.734Z,22.80
2023-04-26T17:38:08.301Z,22.80
2023-04-26T17:40:10.077Z,22.80
2023-04-26T17:42:11.717Z,22.80
2023-04-26T17:44:13.418Z,22.80
2023-04-26T17:46:15.070Z,22.70
2023-04-26T17:48:17.093Z,22.70
2023-04-26T17:50:20.989Z,22.70
2023-04-26T17:52:22.918Z,22.70
2023-04-26T17:54:24.484Z,22.70
2023-04-26T17:56:26.480Z,22.70
2023-04-26T17:58:28.015Z,22.70
2023-04-26T18:00:29.562Z,22.70
2023-04-26T18:02:31.470Z,22.70
2023-04-26T18:04:33.678Z,22.70
2023-04-26T18:06:36.708Z,22.70
2023-04-26T18:08:38.236Z,22.70
2023-04-26T18:10:39.898Z,22.70
2023-04-26T18:12:41.704Z,22.70
2023-04-26T18:14:46.408Z,22.70
2023-04-26T18:16:48.096Z,22.60
2023-04-26T18:18:49.669Z,22.70
2023-04-26T18:20:51.209Z,22.60
2023-04-26T18:22:52.764Z,22.60
2023-04-26T18:24:54.335Z,22.70
2023-04-26T18:26:55.925Z,22.60
2023-04-26T18:28:57.633Z,22.60
2023-04-26T18:31:00.008Z,22.60
2023-04-26T18:33:01.814Z,22.60
2023-04-26T18:35:06.176Z,22.60
2023-04-26T18:37:07.854Z,22.50
2023-04-26T18:39:09.453Z,22.30
2023-04-26T18:41:11.719Z,22.30
2023-04-26T18:43:13.657Z,22.40
2023-04-26T18:45:15.245Z,22.40
2023-04-26T18:47:16.801Z,22.50
2023-04-26T18:49:18.325Z,22.50
2023-04-26T18:51:19.924Z,22.50
2023-04-26T18:53:24.267Z,22.60
2023-04-26T18:55:28.831Z,22.60
2023-04-26T18:57:30.512Z,22.70
2023-04-26T18:59:32.254Z,22.70
2023-04-26T19:01:33.948Z,22.70
2023-04-26T19:03:35.800Z,22.70
2023-04-26T19:05:40.800Z,22.70
2023-04-26T19:07:42.524Z,22.70
2023-04-26T19:09:53.526Z,22.70
2023-04-26T19:11:56.499Z,22.70
2023-04-26T19:13:58.091Z,22.60
2023-04-26T19:15:59.761Z,22.60
2023-04-26T19:18:01.516Z,22.60
2023-04-26T19:20:09.085Z,22.70
2023-04-26T19:22:10.830Z,22.70
2023-04-26T19:24:12.602Z,22.60
2023-04-26T19:26:14.190Z,22.60
2023-04-26T19:28:16.031Z,22.60
2023-04-26T19:30:17.657Z,22.60
2023-04-26T19:32:19.953Z,22.70
2023-04-26T19:34:22.251Z,22.70
2023-04-26T19:36:24.743Z,22.70
2023-04-26T19:38:26.271Z,22.70
2023-04-26T19:40:27.795Z,22.70
2023-04-26T19:42:29.365Z,22.70
2023-04-26T19:44:31.316Z,22.70
2023-04-26T19:46:32.935Z,22.70
2023-04-26T19:48:34.537Z,22.70
2023-04-26T19:50:40.699Z,22.70
2023-04-26T19:52:42.289Z,22.70
2023-04-26T19:54:43.880Z,22.70
2023-04-26T19:56:45.941Z,22.70
2023-04-26T19:58:47.706Z,22.70
2023-04-26T20:00:49.339Z,22.70
2023-04-26T20:02:51.140Z,22.70
2023-04-26T20:04:52.794Z,22.70
2023-04-26T20:06:54.328Z,22.70
2023-04-26T20:08:55.913Z,22.70
2023-04-26T20:11:01.375Z,22.70
2023-04-26T20:13:02.932Z,22.70
2023-04-26T20:15:04.762Z,22.70
2023-04-26T20:17:06.835Z,22.70
2023-04-26T20:19:08.729Z,22.70
2023-04-26T20:21:10.622Z,22.70
2023-04-26T20:23:12.445Z,22.70
2023-04-26T20:25:14.056Z,22.70
2023-04-26T20:27:15.709Z,22.70
2023-04-26T20:29:17.628Z,22.70
2023-04-26T20:31:19.432Z,22.70
2023-04-26T20:33:21.262Z,22.70
2023-04-26T20:35:22.932Z,22.60
2023-04-26T20:37:24.500Z,22.60
2023-04-26T20:39:28.174Z,22.60
2023-04-26T20:41:29.764Z,22.60
2023-04-26T20:43:31.341Z,22.60
2023-04-26T20:45:32.876Z,22.60
2023-04-26T20:47:34.459Z,22.50
2023-04-26T20:49:36.123Z,22.60
2023-04-26T20:51:37.711Z,22.60
2023-04-26T20:53:39.741Z,22.60
2023-04-26T20:55:41.534Z,22.60
2023-04-26T20:57:43.105Z,22.60
2023-04-26T20:59:44.641Z,22.60
2023-04-26T21:01:46.270Z,22.60
2023-04-26T21:03:48.016Z,22.60
2023-04-26T21:05:49.672Z,22.60
2023-04-26T21:07:51.371Z,22.60
2023-04-26T21:09:56.144Z,22.60
2023-04-26T21:11:57.704Z,22.50
2023-04-26T21:13:59.275Z,22.50
2023-04-26T21:16:02.192Z,22.50
2023-04-26T21:18:04.045Z,22.50
2023-04-26T21:20:05.813Z,22.50
2023-04-26T21:22:09.226Z,22.50
2023-04-26T21:24:10.798Z,22.60
2023-04-26T21:26:12.348Z,22.60
2023-04-26T21:28:14.701Z,22.60
2023-04-26T21:30:16.514Z,22.60
2023-04-26T21:32:18.084Z,22.50
2023-04-26T21:34:20.150Z,22.50
2023-04-26T21:36:21.684Z,22.50
2023-04-26T21:38:23.317Z,22.50
2023-04-26T21:40:24.966Z,22.50
2023-04-26T21:42:26.545Z,22.50
2023-04-26T21:44:28.085Z,22.50
2023-04-26T21:46:29.783Z,22.50
2023-04-26T21:48:31.479Z,22.50
2023-04-26T21:50:33.054Z,22.50
2023-04-26T21:52:34.719Z,22.50
2023-04-26T21:54:36.672Z,22.50
2023-04-26T21:56:38.443Z,22.50
2023-04-26T21:58:42.879Z,22.50
2023-04-26T22:00:44.496Z,22.50
2023-04-26T22:02:46.502Z,22.50
2023-04-26T22:04:48.331Z,22.50
2023-04-26T22:06:49.965Z,22.50
2023-04-26T22:08:51.584Z,22.50
2023-04-26T22:10:53.224Z,22.40
2023-04-26T22:12:54.861Z,22.40
2023-04-26T22:14:56.629Z,22.40
2023-04-26T22:16:58.286Z,22.50
2023-04-26T22:18:59.947Z,22.50
2023-04-26T22:21:01.495Z,22.50
2023-04-26T22:23:03.158Z,22.40
2023-04-26T22:25:04.944Z,22.40
2023-04-26T22:27:06.467Z,22.40
2023-04-26T22:29:08.188Z,22.40
2023-04-26T22:31:10.004Z,22.40
2023-04-26T22:33:12.252Z,22.40
2023-04-26T22:35:13.931Z,22.40
2023-04-26T22:37:21.109Z,22.40
2023-04-26T22:39:23.036Z,22.40
2023-04-26T22:41:24.634Z,22.40
2023-04-26T22:43:26.214Z,22.40
2023-04-26T22:45:27.819Z,22.40
2023-04-26T22:47:29.434Z,22.40
2023-04-26T22:49:31.128Z,22.40
2023-04-26T22:51:32.954Z,22.40
2023-04-26T22:53:34.530Z,22.40
2023-04-26T22:55:36.234Z,22.40
2023-04-26T22:57:37.821Z,22.30
2023-04-26T22:59:39.495Z,22.30
2023-04-26T23:01:41.186Z,22.30
2023-04-26T23:03:42.867Z,22.40
2023-04-26T23:05:45.473Z,22.30
2023-04-26T23:07:47.079Z,22.30
2023-04-26T23:09:48.744Z,22.30
2023-04-26T23:11:51.014Z,22.30
2023-04-26T23:13:54.281Z,22.30
2023-04-26T23:15:56.081Z,22.30
2023-04-26T23:17:58.392Z,22.30
2023-04-26T23:20:00.167Z,22.30
2023-04-26T23:22:01.784Z,22.30
2023-04-26T23:24:03.613Z,22.30
2023-04-26T23:26:08.175Z,22.30
2023-04-26T23:28:10.196Z,22.30
2023-04-26T23:30:13.809Z,22.30
2023-04-26T23:32:15.426Z,22.30
2023-04-26T23:34:16.989Z,22.30
2023-04-26T23:36:18.554Z,22.30
2023-04-26T23:38:20.130Z,22.30
2023-04-26T23:40:21.785Z,22.30
2023-04-26T23:42:23.438Z,22.30
2023-04-26T23:44:25.016Z,22.30
2023-04-26T23:46:26.630Z,22.30
2023-04-26T23:48:28.586Z,22.20
2023-04-26T23:50:30.231Z,22.20
2023-04-26T23:52:31.797Z,22.20
2023-04-26T23:54:33.381Z,22.20
2023-04-26T23:56:34.945Z,22.20
2023-04-26T23:58:36.476Z,22.30
